Praga, Češka

05:50 AM CET on november 29, 2014 (GMT +0100)
Jenec | Change Station
CLOSE
Current Station
Osebne vremenske postaje
Location: Jenec, Stredocesky Kraj
Višina: 1211 ft
Nearby Weather Stations

Viš 1211 ft 50.09 °N, 14.21 °E | Updated 29 seconds ago

Overcast
Oblacno
33.8 °F
Feels Like 34 °F
N
1.6
Veter Spremenljivo Veter od JJV
Gusts 9.2 mph

Danes
High -- | Low -- °F
--% Chance of Precip.
Yesterday
High -- | Low -- °F
Precip. -- v
7:37 AM 4:04 PM
Naraščajoči krajec, 47% visible
Zračni tlak 30.06 v
Vidljivost 6.2 milje
Oblaki Few 800 ft
Oblacno 1000 ft
Občutek zaradi vetra 34 °F
Rosišče 29 °F
Vlažnost 82%
Padavine 0.00 v
Snow Depth Not available.
UV 0 out of 12
Pollen Not available.
Air Quality Not available.
Flu Activity Not available.
METAR LKPR 290430Z 12011KT 9999 FEW008 OVC010 01/M01 Q1018 NOSIG

More Conditions Fewer Conditions

Zračni tlak 30.06 v
Vidljivost 6.2 milje
Oblaki Few 800 ft
Oblacno 1000 ft
Občutek zaradi vetra 34 °F
Rosišče 29 °F
Vlažnost 82%
Padavine 0.00 v
Snow Depth Not available.
UV 0 out of 12
Pollen Not available.
Air Quality Not available.
Flu Activity Not available.
METAR LKPR 290430Z 12011KT 9999 FEW008 OVC010 01/M01 Q1018 NOSIG

More Conditions Fewer Conditions

10-Day Weather Forecast

Almanac

Astronomija

Nov. 29, 2014 Rise Set
Actual Time
Civil Twilight
Nautical Twilight
Astronomical Twilight
Moon
Length Of Visible Light
Dolžina dneva
Tomorrow will be .
, % of the Moon is Illuminated

Današnji ekstremi

Country Highs Country Lows

Community

WunderPhotos

Upload Photos

1,774,413 photos uploaded!

WunderBlogs® & News

Nearby

Air Quality

  Air Quality AQ Index Pollutant
Not available.

Snow Depth

Station Depth Višina

Earthquake Activity

City Distance Mag. Time & Date
Minimum magnitude displayed is 2.5.

Coastal Water Temperatures

Mesto Temperatura

Nearby Weather Stations